Time;durP1;ratioP1;P1;durP2;ratioP2;P2;SDS_P1;SDS_P2;PMS_P1;PMS_P2;Temp;Humidity;BMP_temperature;BMP_pressure;BME280_temperature;BME280_humidity;BME280_pressure;Samples;Min_cycle;Max_cycle;Signal;HPM_P1;HPM_P2
2022/02/26 00:01:12;;;;;;;23.20;4.20;;;;;;;-149.78;100.00;50408.84;4792450;29;20050;-69
2022/02/26 00:03:38;;;;;;;19.63;3.90;;;;;;;-149.78;100.00;50416.69;4792435;29;20095;-69
2022/02/26 00:06:04;;;;;;;16.80;4.38;;;;;;;-149.78;100.00;50385.38;4808488;29;20118;-69
2022/02/26 00:08:30;;;;;;;21.38;3.42;;;;;;;-149.78;100.00;50397.13;4808454;29;20134;-69
2022/02/26 00:10:55;;;;;;;16.27;4.00;;;;;;;-149.78;100.00;50395.16;4808444;29;20088;-69
2022/02/26 00:13:21;;;;;;;15.82;3.35;;;;;;;-149.78;100.00;50426.47;4808344;29;20062;-69
2022/02/26 00:15:47;;;;;;;12.20;3.53;;;;;;;-149.78;100.00;50404.94;4808249;29;20039;-69
2022/02/26 00:18:13;;;;;;;22.10;4.28;;;;;;;-149.78;100.00;50383.44;4792226;29;20043;-69
2022/02/26 00:20:39;;;;;;;15.82;3.72;;;;;;;-149.78;100.00;50387.34;4808172;29;20046;-69
2022/02/26 00:23:05;;;;;;;14.63;4.00;;;;;;;-149.78;100.00;50432.31;4808340;29;20095;-69
2022/02/26 00:25:31;;;;;;;19.63;4.07;;;;;;;-149.78;100.00;50369.75;4808208;29;20479;-69
2022/02/26 00:27:57;;;;;;;19.75;3.65;;;;;;;-149.78;100.00;50403.00;4808021;29;20045;-69
2022/02/26 00:30:22;;;;;;;22.83;4.28;;;;;;;-149.78;100.00;50412.78;4806936;29;20506;-69
2022/02/26 00:32:49;;;;;;;17.85;3.35;;;;;;;-149.78;100.00;50420.59;4775669;30;20464;-69
2022/02/26 00:35:14;;;;;;;28.88;3.72;;;;;;;-149.78;100.00;50389.31;4807421;29;20046;-69
2022/02/26 00:37:40;;;;;;;14.80;3.47;;;;;;;-149.78;100.00;50404.94;4791638;29;20042;-69
2022/02/26 00:40:06;;;;;;;15.90;4.18;;;;;;;-149.78;100.00;50373.66;4806734;29;20047;-69
2022/02/26 00:42:33;;;;;;;19.65;4.05;;;;;;;-149.78;100.00;50404.94;4807649;29;20088;-69
2022/02/26 00:44:59;;;;;;;16.85;3.80;;;;;;;-149.78;100.00;50393.22;4806730;29;20047;-69
2022/02/26 00:47:25;;;;;;;19.42;4.13;;;;;;;-149.78;100.00;50420.59;4806661;29;20062;-69
2022/02/26 00:49:51;;;;;;;16.50;3.70;;;;;;;-149.78;100.00;50420.59;4807735;29;20043;-69
2022/02/26 00:52:26;;;;;;;14.48;3.50;;;;;;;-149.78;100.00;50412.78;4807763;29;20407;-69
2022/02/26 00:54:51;;;;;;;24.48;3.88;;;;;;;-149.78;100.00;50418.63;4791521;29;20038;-69
2022/02/26 00:57:18;;;;;;;18.83;4.43;;;;;;;-149.78;100.00;50385.38;4806377;29;20139;-69
2022/02/26 00:59:43;;;;;;;20.48;3.40;;;;;;;-149.78;100.00;50389.31;4807260;29;20116;-69
2022/02/26 01:02:10;;;;;;;20.63;3.42;;;;;;;-149.78;100.00;50381.47;4806299;29;20055;-69
2022/02/26 01:04:37;;;;;;;30.23;4.13;;;;;;;-149.78;100.00;50420.59;4807190;29;20038;-69
2022/02/26 01:07:04;;;;;;;19.63;3.20;;;;;;;-149.78;100.00;50406.91;4807241;29;20047;-69
2022/02/26 01:09:30;;;;;;;23.55;3.60;;;;;;;-149.78;100.00;50404.94;4807293;29;20045;-69
2022/02/26 01:11:56;;;;;;;15.02;3.47;;;;;;;-149.78;100.00;50434.28;4807065;29;20039;-69
2022/02/26 01:14:22;;;;;;;15.52;3.08;;;;;;;-149.78;100.00;50377.56;4807435;29;20411;-69
2022/02/26 01:16:47;;;;;;;22.45;3.90;;;;;;;-149.78;100.00;50408.84;4776247;29;20126;-69
2022/02/26 01:19:13;;;;;;;16.52;3.58;;;;;;;-149.78;100.00;50416.69;4791121;29;20042;-68
2022/02/26 01:21:39;;;;;;;14.20;4.18;;;;;;;-149.78;100.00;50404.94;4807189;29;20095;-69
2022/02/26 01:24:05;;;;;;;20.98;3.70;;;;;;;-149.78;100.00;50365.84;4807088;29;20054;-69
2022/02/26 01:26:31;;;;;;;20.67;3.88;;;;;;;-149.78;100.00;50412.78;4806968;29;20049;-69
2022/02/26 01:28:56;;;;;;;13.05;3.75;;;;;;;-149.78;100.00;50424.50;4806972;29;20046;-69
2022/02/26 01:31:22;;;;;;;21.10;3.92;;;;;;;-149.78;100.00;50385.38;4801287;29;20385;-69
2022/02/26 01:33:48;;;;;;;19.52;4.20;;;;;;;-149.78;100.00;50404.94;4794454;29;20046;-69
2022/02/26 01:36:14;;;;;;;21.73;4.28;;;;;;;-149.78;100.00;50389.31;4807162;29;20491;-69
2022/02/26 01:38:40;;;;;;;22.58;3.50;;;;;;;-149.78;100.00;50436.25;4790825;29;20092;-69
2022/02/26 01:41:07;;;;;;;18.77;3.60;;;;;;;-149.78;100.00;50408.84;4806906;29;20091;-69
2022/02/26 01:43:34;;;;;;;17.63;3.65;;;;;;;-149.78;100.00;50377.56;4806695;29;20530;-69
2022/02/26 01:46:01;;;;;;;22.42;3.50;;;;;;;-149.78;100.00;50420.59;4806630;29;20380;-69
2022/02/26 01:48:27;;;;;;;17.35;3.10;;;;;;;-149.78;100.00;50418.63;4806723;29;20049;-69
2022/02/26 01:50:53;;;;;;;15.70;2.97;;;;;;;-149.78;100.00;50404.94;4806549;29;20042;-68
2022/02/26 01:53:19;;;;;;;14.88;3.00;;;;;;;-149.78;100.00;50397.13;4806553;29;20042;-69
2022/02/26 01:55:45;;;;;;;18.15;3.20;;;;;;;-149.78;100.00;50404.94;4806424;29;20038;-69
2022/02/26 01:58:10;;;;;;;11.98;4.07;;;;;;;-149.78;100.00;50420.59;4805381;29;20038;-69
2022/02/26 02:00:36;;;;;;;28.50;4.80;;;;;;;-149.78;100.00;50410.81;4806289;29;20057;-69
2022/02/26 02:03:02;;;;;;;12.93;2.90;;;;;;;-149.78;100.00;50408.84;4806467;29;20046;-69
2022/02/26 02:05:30;;;;;;;17.30;3.72;;;;;;;-149.78;100.00;50401.03;4790322;29;20062;-69
2022/02/26 02:07:58;;;;;;;16.88;2.80;;;;;;;-149.78;100.00;50424.50;4806267;29;20038;-69
2022/02/26 02:10:24;;;;;;;12.68;3.00;;;;;;;-149.78;100.00;50401.03;4806401;29;20154;-69
2022/02/26 02:12:51;;;;;;;23.23;3.53;;;;;;;-149.78;100.00;50434.28;4806104;29;20117;-69
2022/02/26 02:15:31;;;;;;;20.55;3.55;;;;;;;-149.78;100.00;50377.56;4806408;29;20454;-69
2022/02/26 02:17:57;;;;;;;17.98;2.58;;;;;;;-149.78;100.00;50406.91;4790162;29;20031;-69
2022/02/26 02:20:24;;;;;;;15.20;3.08;;;;;;;-149.78;100.00;50393.22;4805974;29;20071;-69
2022/02/26 02:22:50;;;;;;;15.05;2.63;;;;;;;-149.78;100.00;50424.50;4790125;29;20547;-69
2022/02/26 02:25:17;;;;;;;20.30;3.45;;;;;;;-149.78;100.00;50381.47;4790207;29;20043;-69
2022/02/26 02:27:43;;;;;;;12.52;2.95;;;;;;;-149.78;100.00;50428.41;4775308;29;20381;-69
2022/02/26 02:30:10;;;;;;;15.23;2.80;;;;;;;-149.78;100.00;50412.78;4806178;29;20045;-69
2022/02/26 02:32:36;;;;;;;24.73;2.88;;;;;;;-149.78;100.00;50377.56;4791563;29;20071;-69
2022/02/26 02:35:02;;;;;;;10.38;2.60;;;;;;;-149.78;100.00;50412.78;4802830;29;20126;-69
2022/02/26 02:37:27;;;;;;;8.35;3.03;;;;;;;-149.78;100.00;50424.50;4806118;29;20035;-69
2022/02/26 02:39:53;;;;;;;13.00;2.83;;;;;;;-149.78;100.00;50447.97;4806046;29;20050;-69
2022/02/26 02:42:18;;;;;;;12.73;2.80;;;;;;;-149.78;100.00;50369.75;4806071;29;20033;-69
2022/02/26 02:44:44;;;;;;;10.07;2.80;;;;;;;-149.78;100.00;50479.28;4805901;29;20053;-69
2022/02/26 02:47:10;;;;;;;11.30;3.10;;;;;;;-149.78;100.00;50381.47;4806012;29;20039;-69
2022/02/26 02:49:36;;;;;;;18.55;3.05;;;;;;;-149.78;100.00;50367.78;4804811;29;20043;-69
2022/02/26 02:52:02;;;;;;;20.15;3.42;;;;;;;-149.78;100.00;50416.69;4774865;29;20133;-69
2022/02/26 02:54:27;;;;;;;13.85;2.63;;;;;;;-149.78;100.00;50397.13;4806149;29;20042;-69
2022/02/26 02:56:53;;;;;;;14.82;2.83;;;;;;;-149.78;100.00;50397.13;4804711;29;20049;-69
2022/02/26 02:59:19;;;;;;;19.15;3.10;;;;;;;-149.78;100.00;50395.16;4805886;29;20472;-69
2022/02/26 03:01:45;;;;;;;12.45;3.50;;;;;;;-149.78;100.00;50410.81;4789621;29;20058;-69
2022/02/26 03:04:10;;;;;;;18.38;3.90;;;;;;;-149.78;100.00;50428.41;4804935;29;20506;-69
2022/02/26 03:06:36;;;;;;;11.10;3.20;;;;;;;-149.78;100.00;50412.78;4805755;29;20035;-69
2022/02/26 03:09:02;;;;;;;14.32;3.55;;;;;;;-149.78;100.00;50432.31;4805832;29;20429;-69
2022/02/26 03:11:28;;;;;;;19.80;3.75;;;;;;;-149.78;100.00;50428.41;4805943;29;20129;-69
2022/02/26 03:13:53;;;;;;;14.38;3.83;;;;;;;-149.78;100.00;50414.72;4805763;29;20047;-69
2022/02/26 03:16:19;;;;;;;15.82;3.55;;;;;;;-149.78;100.00;50440.16;4805772;29;20407;-69
2022/02/26 03:18:45;;;;;;;18.90;4.00;;;;;;;-149.78;100.00;50412.78;4805679;29;20042;-69
2022/02/26 03:21:11;;;;;;;14.52;4.03;;;;;;;-149.78;100.00;50401.03;4804627;29;20043;-69
2022/02/26 03:23:37;;;;;;;12.68;3.65;;;;;;;-149.78;100.00;50395.16;4804450;29;20126;-69
2022/02/26 03:26:03;;;;;;;23.42;4.10;;;;;;;-149.78;100.00;50377.56;4804305;29;20198;-69
2022/02/26 03:28:29;;;;;;;15.93;3.85;;;;;;;-149.78;100.00;50404.94;4805541;29;20134;-69
2022/02/26 03:30:55;;;;;;;22.42;4.43;;;;;;;-149.78;100.00;50420.59;4803511;29;20069;-69
2022/02/26 03:33:20;;;;;;;15.18;4.25;;;;;;;-149.78;100.00;50436.25;4792425;29;20516;-68
2022/02/26 03:35:46;;;;;;;22.15;4.05;;;;;;;-149.78;100.00;50424.50;4809090;29;20039;-69
2022/02/26 03:38:11;;;;;;;17.48;4.60;;;;;;;-149.78;100.00;50426.47;4807804;29;20498;-68
2022/02/26 03:40:37;;;;;;;19.70;4.45;;;;;;;-149.78;100.00;50389.31;4808918;29;20387;-69
2022/02/26 03:43:03;;;;;;;19.75;4.88;;;;;;;-149.78;100.00;50393.22;4777775;29;20129;-69
2022/02/26 03:45:29;;;;;;;22.23;4.93;;;;;;;-149.78;100.00;50412.78;4807758;29;20130;-69
2022/02/26 03:47:55;;;;;;;18.70;4.50;;;;;;;-149.78;100.00;50393.22;4792507;29;20464;-69
2022/02/26 03:50:21;;;;;;;23.77;5.15;;;;;;;-149.78;100.00;50420.59;4808890;29;20039;-69
2022/02/26 03:52:46;;;;;;;18.30;5.05;;;;;;;-149.78;100.00;50420.59;4791088;29;20058;-69
2022/02/26 03:55:13;;;;;;;19.83;5.35;;;;;;;-149.78;100.00;50422.56;4774087;30;20043;-69
2022/02/26 03:57:38;;;;;;;26.17;5.53;;;;;;;-149.78;100.00;50403.00;4772915;30;20039;-69
2022/02/26 04:00:07;;;;;;;18.63;5.75;;;;;;;-149.78;100.00;50410.81;4773994;30;20050;-69
2022/02/26 04:02:34;;;;;;;17.40;5.43;;;;;;;-149.78;100.00;50440.16;4774485;30;20035;-69
2022/02/26 04:05:00;;;;;;;23.80;5.32;;;;;;;-149.78;100.00;50412.78;4793716;29;20039;-69
2022/02/26 04:07:26;;;;;;;23.92;5.70;;;;;;;-149.78;100.00;50418.63;4808339;29;20042;-69
2022/02/26 04:09:52;;;;;;;19.75;5.63;;;;;;;-149.78;100.00;50436.25;4808430;29;20494;-69
2022/02/26 04:12:17;;;;;;;25.55;6.40;;;;;;;-149.78;100.00;50416.69;4807440;29;20035;-69
2022/02/26 04:14:43;;;;;;;21.70;6.57;;;;;;;-149.78;100.00;50436.25;4790945;29;20043;-69
2022/02/26 04:17:10;;;;;;;22.77;7.10;;;;;;;-149.78;100.00;50426.47;4788975;30;20390;-69
2022/02/26 04:19:36;;;;;;;24.00;6.82;;;;;;;-149.78;100.00;50432.31;4789010;30;20095;-69
2022/02/26 04:22:03;;;;;;;25.50;6.32;;;;;;;-149.78;100.00;50424.50;4790339;30;20047;-69
2022/02/26 04:24:29;;;;;;;21.52;5.88;;;;;;;-149.78;100.00;50432.31;4790088;30;20050;-68
2022/02/26 04:26:55;;;;;;;24.15;6.35;;;;;;;-149.78;100.00;50420.59;4789876;30;20047;-69
2022/02/26 04:29:20;;;;;;;23.00;5.90;;;;;;;-149.78;100.00;50408.84;4788954;30;20043;-69
2022/02/26 04:31:46;;;;;;;21.80;5.80;;;;;;;-149.78;100.00;50436.25;4780591;29;20042;-68
2022/02/26 04:34:11;;;;;;;22.98;5.05;;;;;;;-149.78;100.00;50424.50;4806823;29;20068;-69
2022/02/26 04:36:37;;;;;;;26.23;5.43;;;;;;;-149.78;100.00;50416.69;4807914;29;20122;-69
2022/02/26 04:39:04;;;;;;;23.58;5.20;;;;;;;-149.78;100.00;50408.84;4805272;29;20042;-69
2022/02/26 04:41:30;;;;;;;14.48;4.95;;;;;;;-149.78;100.00;50401.03;4791779;29;20118;-69
2022/02/26 04:43:57;;;;;;;20.25;5.10;;;;;;;-149.78;100.00;50444.06;4807461;29;20126;-69
2022/02/26 04:46:23;;;;;;;17.63;4.55;;;;;;;-149.78;100.00;50401.03;4795442;29;20105;-69
2022/02/26 04:48:49;;;;;;;18.75;5.45;;;;;;;-149.78;100.00;50451.88;4788022;29;20056;-69
2022/02/26 04:51:15;;;;;;;15.98;4.90;;;;;;;-149.78;100.00;50397.13;4757468;29;20043;-69
2022/02/26 04:53:41;;;;;;;23.20;5.55;;;;;;;-149.78;100.00;50432.31;4806206;29;20038;-69
2022/02/26 04:56:08;;;;;;;18.42;5.30;;;;;;;-149.78;100.00;50440.16;4805382;29;20552;-69
2022/02/26 04:58:35;;;;;;;20.20;5.47;;;;;;;-149.78;100.00;50436.25;4806352;29;20034;-69
2022/02/26 05:01:02;;;;;;;17.92;5.28;;;;;;;-149.78;100.00;50428.41;4791007;29;20086;-69
2022/02/26 05:03:28;;;;;;;19.60;5.35;;;;;;;-149.78;100.00;50432.31;4807625;29;20034;-69
2022/02/26 05:05:54;;;;;;;23.50;5.63;;;;;;;-149.78;100.00;50461.66;4805638;29;20400;-69
2022/02/26 05:08:20;;;;;;;18.30;5.07;;;;;;;-149.78;100.00;50436.25;4807394;29;20042;-69
2022/02/26 05:10:45;;;;;;;21.15;5.30;;;;;;;-149.78;100.00;50389.31;4807383;29;20050;-69
2022/02/26 05:13:11;;;;;;;15.52;4.70;;;;;;;-149.78;100.00;50428.41;4776043;29;20130;-69
2022/02/26 05:15:36;;;;;;;13.23;5.32;;;;;;;-149.78;100.00;50432.31;4807307;29;20094;-69
2022/02/26 05:18:02;;;;;;;16.80;6.13;;;;;;;-149.78;100.00;50440.16;4807389;29;20039;-69
2022/02/26 05:20:30;;;;;;;26.92;5.97;;;;;;;-149.78;100.00;50440.16;4806144;29;20043;-69
2022/02/26 05:22:57;;;;;;;21.42;5.60;;;;;;;-149.78;100.00;50428.41;4790809;29;20035;-69
2022/02/26 05:25:23;;;;;;;20.08;5.30;;;;;;;-149.78;100.00;50436.25;4757992;29;20510;-68
2022/02/26 05:27:48;;;;;;;16.40;5.20;;;;;;;-149.78;100.00;50424.50;4791785;29;20043;-69
2022/02/26 05:30:15;;;;;;;27.67;6.30;;;;;;;-149.78;100.00;50475.34;4788462;29;20104;-68
2022/02/26 05:32:42;;;;;;;29.20;5.85;;;;;;;-149.78;100.00;50455.81;4772466;30;20042;-69
2022/02/26 05:35:08;;;;;;;24.83;5.50;;;;;;;-149.78;100.00;50440.16;4788978;30;20438;-69
2022/02/26 05:37:34;;;;;;;18.00;5.22;;;;;;;-149.78;100.00;50397.13;4788971;30;20039;-69
2022/02/26 05:40:00;;;;;;;22.15;5.30;;;;;;;-149.78;100.00;50416.69;4789045;30;20051;-69
2022/02/26 05:42:26;;;;;;;22.85;5.40;;;;;;;-149.78;100.00;50397.13;4788599;30;20066;-69
2022/02/26 05:44:52;;;;;;;23.20;6.18;;;;;;;-149.78;100.00;50428.41;4772866;30;20051;-69
2022/02/26 05:47:17;;;;;;;19.02;5.97;;;;;;;-149.78;100.00;50471.44;4796493;29;20049;-68
2022/02/26 05:49:43;;;;;;;27.63;5.75;;;;;;;-149.78;100.00;50451.88;4805576;29;20472;-69
2022/02/26 05:52:08;;;;;;;24.83;7.43;;;;;;;-149.78;100.00;50412.78;4806786;29;20375;-69
2022/02/26 05:54:35;;;;;;;21.02;5.70;;;;;;;-149.78;100.00;50412.78;4790028;29;20107;-69
2022/02/26 05:57:02;;;;;;;18.75;5.80;;;;;;;-149.78;100.00;50432.31;4790522;29;20031;-69
2022/02/26 05:59:29;;;;;;;29.75;5.82;;;;;;;-149.78;100.00;50440.16;4789660;29;20051;-69
2022/02/26 06:01:55;;;;;;;22.02;5.95;;;;;;;-149.78;100.00;50420.59;4790322;29;20070;-69
2022/02/26 06:04:21;;;;;;;16.13;5.65;;;;;;;-149.78;100.00;50436.25;4806439;29;20038;-69
2022/02/26 06:06:47;;;;;;;24.58;5.72;;;;;;;-149.78;100.00;50432.31;4806410;29;20054;-69
2022/02/26 06:09:12;;;;;;;24.40;6.05;;;;;;;-149.78;100.00;50436.25;4806588;29;20096;-69
2022/02/26 06:11:38;;;;;;;27.52;6.15;;;;;;;-149.78;100.00;50465.56;4805194;29;20369;-69
2022/02/26 06:14:03;;;;;;;22.52;6.28;;;;;;;-149.78;100.00;50447.97;4790217;29;20070;-69
2022/02/26 06:16:29;;;;;;;16.30;5.68;;;;;;;-149.78;100.00;50436.25;4790218;29;20050;-68
2022/02/26 06:18:55;;;;;;;27.55;6.20;;;;;;;-149.78;100.00;50420.59;4790340;29;20383;-68
2022/02/26 06:21:21;;;;;;;24.42;6.63;;;;;;;-149.78;100.00;50403.00;4790255;29;20035;-68
2022/02/26 06:23:47;;;;;;;19.30;6.05;;;;;;;-149.78;100.00;50491.00;4806260;29;20126;-68
2022/02/26 06:26:12;;;;;;;28.10;6.50;;;;;;;-149.78;100.00;50424.50;4805042;29;20047;-68
2022/02/26 06:28:38;;;;;;;27.58;6.72;;;;;;;-149.78;100.00;50467.53;4806138;29;20046;-69
2022/02/26 06:31:04;;;;;;;34.50;6.10;;;;;;;-149.78;100.00;50408.84;4806160;29;20047;-69
2022/02/26 06:33:29;;;;;;;24.35;6.32;;;;;;;-149.78;100.00;50436.25;4804925;29;20166;-69
2022/02/26 06:35:55;;;;;;;22.77;6.25;;;;;;;-149.78;100.00;50422.56;4806225;29;20062;-68
2022/02/26 06:38:21;;;;;;;29.20;6.68;;;;;;;-149.78;100.00;50451.88;4806119;29;20035;-69
2022/02/26 06:40:46;;;;;;;20.27;6.13;;;;;;;-149.78;100.00;50459.72;4789922;29;20051;-69
2022/02/26 06:43:12;;;;;;;24.20;5.55;;;;;;;-149.78;100.00;50440.16;4806309;29;20046;-68
2022/02/26 06:45:38;;;;;;;18.40;5.40;;;;;;;-149.78;100.00;50389.31;4804946;29;20046;-69
2022/02/26 06:48:04;;;;;;;16.55;6.10;;;;;;;-149.78;100.00;50436.25;4804641;29;20042;-69
2022/02/26 06:50:30;;;;;;;25.80;6.32;;;;;;;-149.78;100.00;50447.97;4804769;29;20039;-68
2022/02/26 06:52:57;;;;;;;24.73;6.60;;;;;;;-149.78;100.00;50404.94;4805883;29;20039;-68
2022/02/26 06:55:23;;;;;;;22.05;6.72;;;;;;;-149.78;100.00;50447.97;4802003;29;20095;-68
2022/02/26 06:57:49;;;;;;;27.88;6.78;;;;;;;-149.78;100.00;50451.88;4787934;30;20042;-68
2022/02/26 07:00:15;;;;;;;19.50;6.40;;;;;;;-149.78;100.00;50446.03;4794444;29;20141;-69
2022/02/26 07:02:42;;;;;;;28.38;6.93;;;;;;;-149.78;100.00;50467.53;4806001;29;20573;-69
2022/02/26 07:05:08;;;;;;;30.58;6.30;;;;;;;-149.78;100.00;50428.41;4794349;29;20122;-68
2022/02/26 07:07:34;;;;;;;17.58;6.10;;;;;;;-149.78;100.00;50447.97;4774871;30;20127;-69
2022/02/26 07:10:00;;;;;;;26.23;6.57;;;;;;;-149.78;100.00;50422.56;4775473;30;20138;-68
2022/02/26 07:12:25;;;;;;;27.10;6.68;;;;;;;-149.78;100.00;50424.50;4791507;30;20039;-69
2022/02/26 07:14:51;;;;;;;18.67;6.60;;;;;;;-149.78;100.00;50447.97;4791457;30;20500;-69
2022/02/26 07:17:18;;;;;;;22.17;6.68;;;;;;;-149.78;100.00;50444.06;4775219;30;20442;-68
2022/02/26 07:19:44;;;;;;;23.10;6.40;;;;;;;-149.78;100.00;50487.09;4790044;30;20039;-68
2022/02/26 07:22:09;;;;;;;33.60;7.97;;;;;;;-149.78;100.00;50428.41;4791204;30;20043;-69
2022/02/26 07:24:35;;;;;;;25.48;8.48;;;;;;;-149.78;100.00;50397.13;4791100;30;20133;-68
2022/02/26 07:27:00;;;;;;;37.92;8.32;;;;;;;-149.78;100.00;50451.88;4791033;30;20048;-68
2022/02/26 07:29:26;;;;;;;36.00;8.18;;;;;;;-149.78;100.00;50449.94;4791152;30;20042;-68
2022/02/26 07:31:52;;;;;;;23.88;7.13;;;;;;;-149.78;100.00;50479.28;4790850;30;20377;-68
2022/02/26 07:34:17;;;;;;;24.50;7.78;;;;;;;-149.78;100.00;50465.56;4791104;30;20429;-69
2022/02/26 07:36:43;;;;;;;31.10;7.75;;;;;;;-149.78;100.00;50451.88;4791085;30;20040;-69
2022/02/26 07:39:09;;;;;;;28.17;8.20;;;;;;;-149.78;100.00;50424.50;4774834;30;20039;-69
2022/02/26 07:41:35;;;;;;;32.63;8.50;;;;;;;-149.78;100.00;50416.69;4789826;30;20170;-68
2022/02/26 07:44:00;;;;;;;29.33;6.65;;;;;;;-149.78;100.00;50436.25;4790934;30;20043;-69
2022/02/26 07:46:26;;;;;;;27.35;7.53;;;;;;;-149.78;100.00;50451.88;4792107;29;20043;-69
2022/02/26 07:48:51;;;;;;;28.85;7.10;;;;;;;-149.78;100.00;50418.63;4808728;29;20042;-69
2022/02/26 07:51:17;;;;;;;32.22;7.82;;;;;;;-149.78;100.00;50449.94;4808876;29;20353;-69
2022/02/26 07:53:44;;;;;;;33.72;7.38;;;;;;;-149.78;100.00;50440.16;4808671;29;20046;-69
2022/02/26 07:56:10;;;;;;;31.13;6.05;;;;;;;-149.78;100.00;50447.97;4797872;29;20089;-69
2022/02/26 07:58:36;;;;;;;24.70;6.90;;;;;;;-149.78;100.00;50453.84;4790509;29;20096;-69
2022/02/26 08:01:02;;;;;;;26.52;6.20;;;;;;;-149.78;100.00;50412.78;4803135;29;20141;-68
2022/02/26 08:03:28;;;;;;;21.92;5.88;;;;;;;-149.78;100.00;50424.50;4808514;29;20510;-69
2022/02/26 08:05:54;;;;;;;25.58;6.03;;;;;;;-149.78;100.00;50440.16;4790161;29;20043;-69
2022/02/26 08:08:20;;;;;;;30.50;6.20;;;;;;;-149.78;100.00;50455.81;4774207;30;20108;-69
2022/02/26 08:10:46;;;;;;;17.63;5.57;;;;;;;-149.78;100.00;50403.00;4790400;30;20396;-69
2022/02/26 08:13:11;;;;;;;25.40;6.60;;;;;;;-149.78;100.00;50432.31;4790503;30;20046;-69
2022/02/26 08:15:37;;;;;;;19.88;5.53;;;;;;;-149.78;100.00;50404.94;4790497;30;20046;-68
2022/02/26 08:18:04;;;;;;;23.73;6.68;;;;;;;-149.78;100.00;50467.53;4773749;30;20410;-69
2022/02/26 08:20:29;;;;;;;26.95;6.97;;;;;;;-149.78;100.00;50428.41;4789257;30;20160;-69
2022/02/26 08:22:55;;;;;;;24.30;6.47;;;;;;;-149.78;100.00;50447.97;4790210;30;20046;-69
2022/02/26 08:25:22;;;;;;;27.27;7.82;;;;;;;-149.78;100.00;50420.59;4790242;30;20039;-69
2022/02/26 08:27:47;;;;;;;21.42;5.97;;;;;;;-149.78;100.00;50420.59;4790041;30;20047;-68
2022/02/26 08:30:16;;;;;;;20.90;6.30;;;;;;;-149.78;100.00;50451.88;4789035;30;20050;-69
2022/02/26 08:32:42;;;;;;;27.13;5.65;;;;;;;-149.78;100.00;50416.69;4759047;30;20059;-69
2022/02/26 08:35:10;;;;;;;24.40;5.97;;;;;;;-149.78;100.00;50373.66;4790154;30;20070;-69
2022/02/26 08:37:37;;;;;;;17.23;4.72;;;;;;;-149.78;100.00;50322.81;4789960;30;20041;-69
2022/02/26 08:40:05;;;;;;;16.73;4.90;;;;;;;-149.78;100.00;50303.25;4789840;30;20051;-69
2022/02/26 08:42:31;;;;;;;19.65;5.32;;;;;;;-149.78;100.00;50324.75;4789853;30;20046;-69
2022/02/26 08:44:57;;;;;;;15.65;4.82;;;;;;;-149.78;100.00;50277.81;4789853;30;20039;-69
2022/02/26 08:47:23;;;;;;;18.30;5.55;;;;;;;-149.78;100.00;50246.53;4781763;29;20494;-69
2022/02/26 08:49:49;;;;;;;15.90;5.00;;;;;;;-149.78;100.00;50275.88;4807784;29;20035;-69
2022/02/26 08:52:15;;;;;;;15.25;5.15;;;;;;;-149.78;100.00;50248.50;4807621;29;20047;-69
2022/02/26 08:54:41;;;;;;;14.55;4.70;;;;;;;-149.78;89.24;50240.66;4807719;29;20403;-70
2022/02/26 08:57:07;;;;;;;20.15;4.95;;;;;;;-149.78;83.71;50234.81;4789748;29;20116;-70
2022/02/26 08:59:33;;;;;;;11.07;4.80;;;;;;;-149.78;82.05;50238.72;4774852;29;20127;-70
2022/02/26 09:02:00;;;;;;;14.70;4.53;;;;;;;-149.78;74.89;50225.03;4807423;29;20055;-69
2022/02/26 09:04:26;;;;;;;16.00;4.43;;;;;;;-149.78;61.77;50226.97;4801410;29;20039;-70
2022/02/26 09:06:52;;;;;;;13.10;4.32;;;;;;;-149.78;60.11;50197.66;4789466;30;20112;-70
2022/02/26 09:09:18;;;;;;;17.30;4.90;;;;;;;-149.78;58.81;50178.09;4788178;29;20113;-70
2022/02/26 09:11:44;;;;;;;21.45;4.80;;;;;;;-149.78;54.82;50129.19;4788282;30;20412;-70
2022/02/26 09:14:11;;;;;;;13.00;4.57;;;;;;;-149.78;53.42;50158.53;4772954;30;20046;-68
2022/02/26 09:16:37;;;;;;;16.35;4.75;;;;;;;-149.78;58.72;50193.72;4787883;30;20491;-68
2022/02/26 09:19:03;;;;;;;14.35;4.32;;;;;;;-149.78;59.14;50221.13;4787597;30;20065;-70
2022/02/26 09:21:29;;;;;;;14.82;3.95;;;;;;;-149.78;59.84;50232.84;4772939;30;20081;-68
2022/02/26 09:23:55;;;;;;;13.13;4.03;;;;;;;-149.78;55.65;50180.03;4788764;30;20058;-68
2022/02/26 09:26:20;;;;;;;14.93;4.93;;;;;;;-149.78;56.39;50152.66;4788714;30;20043;-68
2022/02/26 09:28:46;;;;;;;14.20;4.85;;;;;;;-149.78;56.07;50170.25;4787586;29;20051;-68
2022/02/26 09:31:13;;;;;;;15.57;5.15;;;;;;;-149.78;52.31;50135.06;4789156;30;20050;-67
2022/02/26 09:33:39;;;;;;;16.70;4.78;;;;;;;-149.78;50.69;50160.50;4788991;30;20508;-67
2022/02/26 09:36:07;;;;;;;19.08;4.68;;;;;;;-149.78;50.23;50103.78;4788869;30;20495;-68
2022/02/26 09:38:34;;;;;;;17.08;4.40;;;;;;;-149.78;54.47;50183.97;4788859;30;20054;-69
2022/02/26 09:41:01;;;;;;;15.85;4.18;;;;;;;-149.78;53.14;50156.56;4772899;30;20141;-69
2022/02/26 09:43:27;;;;;;;11.75;3.88;;;;;;;-149.78;51.87;50103.78;4788846;30;20067;-69
2022/02/26 09:45:55;;;;;;;14.23;3.97;;;;;;;-149.78;52.66;50154.63;4788958;30;20043;-69
2022/02/26 09:48:21;;;;;;;14.35;3.60;;;;;;;-149.78;51.67;50109.66;4804207;29;20061;-69
2022/02/26 09:50:51;;;;;;;15.45;4.65;;;;;;;-149.78;51.50;50121.38;4806782;29;20445;-69
2022/02/26 09:53:17;;;;;;;15.57;3.60;;;;;;;-149.78;54.26;50142.88;4805493;29;20468;-69
2022/02/26 09:55:46;;;;;;;15.05;4.32;;;;;;;-149.78;52.11;50099.88;4800454;29;20234;-69
2022/02/26 09:58:16;;;;;;;14.80;3.67;;;;;;;-149.78;54.11;50127.25;4787410;30;20104;-69
2022/02/26 10:00:46;;;;;;;14.52;3.88;;;;;;;-149.78;55.85;50166.34;4782364;29;20065;-69
2022/02/26 10:03:24;;;;;;;16.08;4.00;;;;;;;-149.78;56.03;50123.34;4790268;29;20070;-69
2022/02/26 10:06:04;;;;;;;14.23;4.57;;;;;;;-149.78;60.34;50207.44;4773751;30;20043;-69
2022/02/26 10:08:36;;;;;;;17.95;5.43;;;;;;;-149.78;61.44;50168.31;4788467;30;20046;-69
2022/02/26 10:11:01;;;;;;;15.73;4.03;;;;;;;-149.78;62.86;50172.22;4788433;30;20051;-69
2022/02/26 10:13:27;;;;;;;16.45;4.93;;;;;;;-149.78;63.68;50189.81;4788415;30;20050;-69
2022/02/26 10:15:53;;;;;;;17.42;4.55;;;;;;;-149.78;66.04;50225.03;4787208;30;20081;-69
2022/02/26 10:18:19;;;;;;;20.38;5.00;;;;;;;-149.78;70.81;50268.03;4788070;30;20552;-69
2022/02/26 10:20:54;;;;;;;15.70;4.82;;;;;;;-149.78;73.87;50264.13;4788222;30;20047;-69
2022/02/26 10:23:22;;;;;;;19.65;5.25;;;;;;;-149.78;81.51;50256.31;4788229;30;20066;-69
2022/02/26 10:25:48;;;;;;;12.63;4.13;;;;;;;-149.78;88.05;50275.88;4788259;30;20065;-68
2022/02/26 10:28:15;;;;;;;22.23;5.20;;;;;;;-149.78;91.12;50295.44;4772095;30;20046;-68
2022/02/26 10:30:45;;;;;;;17.13;5.18;;;;;;;-149.78;97.32;50256.31;4788229;30;20088;-68
2022/02/26 10:33:17;;;;;;;21.23;4.30;;;;;;;-149.78;98.04;50254.34;4787068;30;20092;-69
2022/02/26 10:35:45;;;;;;;16.45;4.47;;;;;;;-149.78;94.58;50260.22;4788222;30;20038;-68
2022/02/26 10:38:20;;;;;;;14.40;3.78;;;;;;;-149.78;82.63;50225.03;4788025;30;20039;-69
2022/02/26 10:40:53;;;;;;;15.93;3.50;;;;;;;-149.78;70.73;50207.44;4771708;30;20046;-69
2022/02/26 10:43:40;;;;;;;15.35;4.05;;;;;;;-149.78;72.35;50232.84;4786917;30;20035;-69
2022/02/26 10:46:33;;;;;;;16.52;3.85;;;;;;;-149.78;72.91;50283.69;4788088;30;20047;-69
2022/02/26 10:49:07;;;;;;;13.85;3.78;;;;;;;-149.78;76.28;50250.44;4788149;30;20067;-69
2022/02/26 10:51:39;;;;;;;18.58;3.92;;;;;;;-149.78;77.70;50244.59;4786754;30;20049;-68
2022/02/26 10:54:25;;;;;;;17.52;4.30;;;;;;;-149.78;77.26;50258.28;4788069;30;20039;-69
2022/02/26 10:56:52;;;;;;;22.42;4.80;;;;;;;-149.78;78.57;50240.66;4772091;30;20051;-69
2022/02/26 10:59:32;;;;;;;17.83;4.07;;;;;;;-149.78;80.86;50260.22;4771729;30;20094;-68